Time;durP1;ratioP1;P1;durP2;ratioP2;P2;SDS_P1;SDS_P2;PMS_P1;PMS_P2;Temp;Humidity;BMP_temperature;BMP_pressure;BME280_temperature;BME280_humidity;BME280_pressure;Samples;Min_cycle;Max_cycle;Signal;HPM_P1;HPM_P2
2022/02/02 00:05:01;;;;;;;;;;;;;;;3.65;86.14;98621.14;1671795;84;20234;-70
2022/02/02 00:07:50;;;;;;;;;;;;;;;3.67;86.22;98624.50;1645288;85;20194;-70
2022/02/02 00:19:11;;;;;;;8.90;2.12;;;;;;;3.66;86.16;98632.61;1660535;85;21544;-70
2022/02/02 00:21:52;;;;;;;12.98;2.83;;;;;;;3.68;86.17;98638.13;1645181;85;21056;-70
2022/02/02 00:24:53;;;;;;;8.38;2.42;;;;;;;3.67;86.22;98623.23;1639667;85;21132;-70
2022/02/02 00:27:23;;;;;;;12.37;2.55;;;;;;;3.69;86.23;98635.53;1644935;85;21476;-70
2022/02/02 00:30:13;;;;;;;10.72;2.50;;;;;;;3.69;86.27;98631.70;1658660;85;20985;-70
2022/02/02 00:33:19;;;;;;;12.13;2.40;;;;;;;3.70;86.23;98639.78;1628048;85;21600;-70
2022/02/02 00:36:03;;;;;;;11.37;2.17;;;;;;;3.71;86.23;98644.45;1661912;85;21053;-70
2022/02/02 00:38:42;;;;;;;13.75;3.00;;;;;;;3.72;86.20;98638.47;1657151;85;21081;-70
2022/02/02 00:41:27;;;;;;;19.65;4.10;;;;;;;3.73;86.30;98646.55;1638816;86;21073;-70
2022/02/02 00:44:15;;;;;;;20.35;4.55;;;;;;;3.75;86.32;98640.97;1652983;86;21081;-70
2022/02/02 00:46:58;;;;;;;20.15;4.03;;;;;;;3.76;86.39;98642.22;1632666;84;21069;-70
2022/02/02 00:49:43;;;;;;;23.07;4.15;;;;;;;3.78;86.37;98645.58;1629318;85;21718;-70
2022/02/02 00:52:28;;;;;;;20.05;3.72;;;;;;;3.81;86.39;98648.52;1648033;86;21050;-70
2022/02/02 00:55:12;;;;;;;21.70;3.83;;;;;;;3.83;86.41;98645.05;1626558;86;21659;-69
2022/02/02 00:57:56;;;;;;;19.02;4.05;;;;;;;3.84;86.40;98639.06;1648831;86;21061;-69
2022/02/02 01:00:41;;;;;;;18.25;3.90;;;;;;;3.86;86.40;98644.98;1661775;85;21495;-69
2022/02/02 01:03:25;;;;;;;19.45;3.37;;;;;;;3.88;86.49;98645.80;1661240;85;21137;-70
2022/02/02 01:06:13;;;;;;;17.73;3.40;;;;;;;3.89;86.42;98641.09;1638383;86;21136;-70
2022/02/02 01:29:48;;;;;;;22.52;4.08;;;;;;;3.93;86.41;98651.66;1645976;86;21093;-70
2022/02/02 01:32:32;;;;;;;15.10;2.83;;;;;;;3.93;86.49;98648.27;1659374;85;21073;-70
2022/02/02 01:35:18;;;;;;;16.48;2.92;;;;;;;3.93;86.48;98643.15;1615659;86;21013;-71
2022/02/02 01:38:04;;;;;;;14.87;3.83;;;;;;;3.93;86.49;98652.09;1661627;85;21065;-70
2022/02/02 01:40:57;;;;;;;26.12;3.60;;;;;;;3.94;86.55;98638.44;1635296;85;21733;-70
2022/02/02 01:43:49;;;;;;;17.52;3.00;;;;;;;3.94;86.50;98641.00;1635315;85;21140;-69
2022/02/02 01:46:31;;;;;;;18.20;3.70;;;;;;;3.94;86.54;98652.06;1639952;86;21098;-69
2022/02/02 01:50:05;;;;;;;17.15;3.40;;;;;;;3.94;86.53;98643.12;1645177;86;21145;-69
2022/02/02 01:55:05;;;;;;;16.45;3.35;;;;;;;3.95;86.62;98657.59;1644428;86;21053;-69
2022/02/02 01:58:02;;;;;;;20.20;3.10;;;;;;;3.95;86.56;98654.19;1644954;86;21117;-70
2022/02/02 02:00:34;;;;;;;14.38;3.15;;;;;;;3.97;86.55;98663.51;1634499;86;21120;-69
2022/02/02 02:03:19;;;;;;;18.80;3.05;;;;;;;3.96;86.57;98655.44;1640687;85;21111;-69
2022/02/02 02:06:05;;;;;;;20.17;3.58;;;;;;;3.95;86.59;98665.25;1646637;86;21132;-69
2022/02/02 02:08:50;;;;;;;13.98;3.00;;;;;;;3.97;86.56;98663.95;1659418;85;21736;-70
2022/02/02 02:11:36;;;;;;;16.42;3.72;;;;;;;3.97;86.60;98667.34;1645931;85;21041;-70
2022/02/02 02:17:23;;;;;;;16.20;3.52;;;;;;;3.99;86.62;98672.42;1648015;86;20989;-70
2022/02/02 02:20:08;;;;;;;;;;;;;;;4.00;86.62;98680.50;1615365;87;22272;-70
2022/02/02 02:22:52;;;;;;;19.15;3.45;;;;;;;4.01;86.68;98674.52;1620406;86;20442;-70
2022/02/02 02:25:42;;;;;;;17.73;3.20;;;;;;;4.01;86.69;98681.34;1620718;86;21344;-70
2022/02/02 02:28:40;;;;;;;22.40;3.67;;;;;;;4.03;86.67;98681.72;1653516;86;21029;-69
2022/02/02 02:31:26;;;;;;;12.63;3.00;;;;;;;4.02;86.62;98687.70;1662973;85;21066;-70
2022/02/02 02:37:16;;;;;;;17.00;3.10;;;;;;;4.03;86.61;98690.67;1624301;86;20938;-70
2022/02/02 02:58:22;;;;;;;13.35;2.55;;;;;;;4.05;86.68;98708.10;1629406;86;21557;-70
2022/02/02 03:29:53;;;;;;;19.30;2.92;;;;;;;4.03;86.75;98720.52;1645018;85;20929;-69
2022/02/02 03:50:34;;;;;;;16.02;2.33;;;;;;;4.01;86.87;98751.67;1661430;85;21587;-70
2022/02/02 03:55:20;;;;;;;16.25;2.72;;;;;;;4.00;86.89;98758.50;1643451;86;21069;-69
2022/02/02 04:04:09;;;;;;;18.62;2.20;;;;;;;3.99;86.86;98748.70;1661841;85;21038;-69
2022/02/02 04:06:58;;;;;;;15.20;2.85;;;;;;;4.00;86.87;98759.77;1650672;85;21144;-69
2022/02/02 04:09:34;;;;;;;9.90;2.30;;;;;;;3.99;86.88;98766.61;1651950;86;21104;-69
2022/02/02 04:37:21;;;;;;;7.10;1.45;;;;;;;3.98;86.92;98755.12;1638955;86;21544;-70
2022/02/02 04:54:32;;;;;;;13.05;2.90;;;;;;;3.90;87.13;98785.11;1577362;90;21021;-69
2022/02/02 05:09:14;;;;;;;26.27;5.08;;;;;;;3.89;87.17;98797.48;1626475;87;20942;-69
2022/02/02 05:42:16;;;;;;;19.55;3.77;;;;;;;3.91;87.16;98838.77;1646618;85;21049;-69
2022/02/02 05:53:21;;;;;;;7.12;1.37;;;;;;;3.88;87.16;98890.39;1667173;85;21129;-68
2022/02/02 05:56:07;;;;;;;3.17;1.05;;;;;;;3.78;86.91;98906.75;1646699;85;21048;-67
2022/02/02 05:58:51;;;;;;;3.95;1.40;;;;;;;3.59;86.80;98904.52;1592172;88;21131;-68
2022/02/02 06:01:40;;;;;;;4.95;1.12;;;;;;;3.38;86.80;98909.94;1643689;85;21117;-68
2022/02/02 06:04:29;;;;;;;7.30;2.05;;;;;;;3.23;86.96;98910.99;1646669;85;21080;-68
2022/02/02 06:07:15;;;;;;;5.33;1.80;;;;;;;3.14;87.02;98925.59;1618316;85;21119;-68
2022/02/02 06:10:02;;;;;;;4.45;1.10;;;;;;;3.04;87.13;98941.93;1623998;87;21151;-68
2022/02/02 06:12:49;;;;;;;2.85;1.05;;;;;;;2.92;87.24;98949.30;1627949;86;21514;-68
2022/02/02 06:15:35;;;;;;;3.15;0.80;;;;;;;2.83;87.21;98943.88;1638405;85;20958;-68
2022/02/02 06:18:20;;;;;;;;;;;;;;;2.75;87.33;98952.05;1659466;85;21047;-67
2022/02/02 06:21:08;;;;;;;0.82;0.53;;;;;;;2.68;87.39;98951.70;1658611;85;20409;-67
2022/02/02 06:24:11;;;;;;;1.92;0.57;;;;;;;2.65;87.37;98974.27;1635529;84;21780;-71
2022/02/02 06:58:18;;;;;;;2.45;0.90;;;;;;;2.49;87.49;99030.16;1773892;78;28571;-71
2022/02/02 07:01:15;;;;;;;1.75;0.42;;;;;;;2.47;87.56;99036.14;1745118;80;20997;-71
2022/02/02 07:04:04;;;;;;;4.10;0.45;;;;;;;2.47;87.68;99049.73;1751332;80;20993;-72
2022/02/02 07:09:53;;;;;;;1.90;1.00;;;;;;;2.52;87.79;99047.14;1745575;80;21036;-71
2022/02/02 07:12:36;;;;;;;1.57;0.60;;;;;;;2.53;87.74;99057.77;1747746;81;21497;-70
2022/02/02 07:15:45;;;;;;;0.82;0.30;;;;;;;2.55;87.74;99067.53;1751744;80;20957;-70
2022/02/02 07:18:43;;;;;;;2.30;0.37;;;;;;;2.57;87.79;99071.76;1732992;80;20897;-73
2022/02/02 07:21:40;;;;;;;1.77;0.82;;;;;;;2.56;87.76;99066.67;1753462;80;20949;-72
2022/02/02 07:30:11;;;;;;;2.40;1.22;;;;;;;2.62;87.82;99095.50;1744958;80;21326;-72
2022/02/02 07:32:54;;;;;;;2.90;1.22;;;;;;;2.61;87.79;99096.36;1751804;80;20921;-72
2022/02/02 07:36:22;;;;;;;1.80;1.00;;;;;;;2.63;87.80;99093.36;1739271;80;20910;-71
2022/02/02 07:38:58;;;;;;;2.00;1.00;;;;;;;2.61;87.66;99105.29;1710225;82;21496;-72
2022/02/02 07:41:48;;;;;;;5.65;1.20;;;;;;;2.60;87.73;99110.44;1693045;82;21013;-72
2022/02/02 07:44:39;;;;;;;1.22;0.65;;;;;;;2.58;87.75;99105.34;1700517;82;21569;-72
2022/02/02 07:47:26;;;;;;;1.60;0.70;;;;;;;2.63;87.84;99108.67;1686379;81;21101;-71
2022/02/02 07:50:11;;;;;;;;;;;;;;;2.66;87.83;99110.36;1684594;82;21053;-72
2022/02/02 07:53:03;;;;;;;1.87;0.68;;;;;;;2.66;87.91;99108.66;1686560;83;20173;-71
2022/02/02 07:55:47;;;;;;;2.10;1.00;;;;;;;2.69;87.91;99109.48;1696331;83;21095;-71
2022/02/02 07:58:34;;;;;;;1.50;0.82;;;;;;;2.70;87.92;99107.35;1700388;83;21066;-72
2022/02/02 08:01:18;;;;;;;1.90;0.88;;;;;;;2.71;87.90;99117.97;1663194;83;21089;-72
2022/02/02 08:04:03;;;;;;;1.90;1.10;;;;;;;2.70;87.88;99128.61;1666107;85;21098;-72
2022/02/02 08:06:52;;;;;;;3.33;1.17;;;;;;;2.71;87.89;99138.39;1696062;83;21638;-72
2022/02/02 08:22:48;;;;;;;3.22;1.80;;;;;;;2.88;87.64;99164.20;1779904;79;28078;-80
2022/02/02 08:25:33;;;;;;;4.65;2.00;;;;;;;2.82;87.71;99171.06;1748387;81;21296;-79
2022/02/02 08:28:19;;;;;;;3.33;2.05;;;;;;;2.72;87.71;99177.09;1777195;80;20967;-79
2022/02/02 08:31:05;;;;;;;2.85;1.65;;;;;;;2.62;87.80;99183.96;1769915;79;21424;-79
2022/02/02 08:33:50;;;;;;;3.30;1.93;;;;;;;2.57;87.88;99185.73;1724616;82;20926;-80
2022/02/02 08:36:37;;;;;;;4.28;1.60;;;;;;;2.52;87.90;99193.41;1711419;81;21466;-79
2022/02/02 08:42:30;;;;;;;2.67;1.72;;;;;;;2.47;88.04;99214.28;1740562;80;21061;-81
2022/02/02 08:45:22;;;;;;;4.03;2.35;;;;;;;2.44;88.02;99216.00;1744193;80;20905;-82
2022/02/02 08:48:08;;;;;;;2.42;1.90;;;;;;;2.40;88.00;99226.65;1738770;81;20862;-80
2022/02/02 08:50:56;;;;;;;2.58;1.98;;;;;;;2.35;88.05;99230.08;1721816;81;20958;-80
2022/02/02 08:53:55;;;;;;;1.80;1.52;;;;;;;2.34;88.06;99245.81;1715246;82;21936;-80
2022/02/02 08:59:24;;;;;;;2.30;1.42;;;;;;;2.30;88.12;99244.13;1725992;81;21052;-79
2022/02/02 09:02:12;;;;;;;;;;;;;;;2.30;88.09;99247.95;1740851;80;20933;-78
2022/02/02 09:07:59;;;;;;;3.25;1.35;;;;;;;2.27;88.22;99256.89;1728635;81;21013;-78
2022/02/02 09:20:18;;;;;;;2.77;1.90;;;;;;;2.42;88.23;99267.45;1687296;83;20916;-76
2022/02/02 09:34:59;;;;;;;3.85;1.90;;;;;;;2.49;88.29;99294.63;1743363;81;21020;-80
2022/02/02 09:37:45;;;;;;;3.70;2.77;;;;;;;2.50;88.26;99308.66;1743660;81;21087;-78
2022/02/02 09:41:13;;;;;;;4.17;2.17;;;;;;;2.49;88.22;99306.96;1739269;81;20996;-81
2022/02/02 09:43:26;;;;;;;3.00;1.82;;;;;;;2.53;88.28;99312.90;1739707;81;20914;-79
2022/02/02 09:46:14;;;;;;;5.25;2.42;;;;;;;2.53;88.23;99320.13;1742277;80;20906;-76
2022/02/02 09:49:00;;;;;;;;;;;;;;;2.56;88.31;99327.77;1729311;81;20917;-76
2022/02/02 09:51:48;;;;;;;4.75;2.22;;;;;;;2.61;88.35;99335.38;1734794;80;20095;-77
2022/02/02 10:00:33;;;;;;;3.85;2.10;;;;;;;2.70;88.37;99340.86;1718648;80;21552;-73
2022/02/02 10:12:46;;;;;;;2.05;1.57;;;;;;;2.75;88.33;99360.41;1700877;83;21070;-81
2022/02/02 10:15:24;;;;;;;2.58;1.70;;;;;;;2.77;88.29;99368.05;1694608;83;21066;-82
2022/02/02 10:18:14;;;;;;;2.25;1.45;;;;;;;2.75;88.31;99379.55;1699954;82;21749;-80
2022/02/02 10:20:56;;;;;;;1.98;1.57;;;;;;;2.78;88.36;99379.96;1644949;84;21121;-80
2022/02/02 10:23:42;;;;;;;2.62;1.92;;;;;;;2.78;88.25;99381.23;1653552;84;21006;-80
2022/02/02 10:26:26;;;;;;;5.45;1.60;;;;;;;2.77;88.30;99382.09;1643284;85;21145;-82
2022/02/02 10:29:14;;;;;;;1.75;1.25;;;;;;;2.75;88.25;99388.48;1637604;86;21133;-77
2022/02/02 10:31:57;;;;;;;2.37;1.10;;;;;;;2.75;88.29;99391.45;1649142;85;21627;-79
2022/02/02 10:34:42;;;;;;;1.40;1.07;;;;;;;2.78;88.39;99397.83;1649508;85;21738;-78
2022/02/02 10:37:30;;;;;;;1.82;1.40;;;;;;;2.81;88.41;99396.11;1638453;86;21113;-83
2022/02/02 10:40:13;;;;;;;1.95;1.60;;;;;;;2.82;88.33;99399.52;1660824;85;21026;-80
2022/02/02 10:42:58;;;;;;;2.75;1.67;;;;;;;2.79;88.20;99401.66;1666960;83;20960;-80
2022/02/02 10:45:42;;;;;;;3.00;1.80;;;;;;;2.79;88.25;99407.19;1705261;83;21088;-79
2022/02/02 10:48:39;;;;;;;3.42;2.12;;;;;;;2.79;88.36;99398.25;1699240;83;21010;-80
2022/02/02 10:51:33;;;;;;;4.00;2.22;;;;;;;2.81;88.37;99413.98;1690080;83;21096;-81
2022/02/02 10:54:33;;;;;;;2.37;1.92;;;;;;;2.85;88.39;99418.65;1705895;83;21024;-79
2022/02/02 11:08:56;;;;;;;2.10;1.27;;;;;;;3.02;88.42;99446.66;1703986;81;21043;-78
2022/02/02 11:11:50;;;;;;;5.08;1.47;;;;;;;3.00;88.44;99454.33;1704202;81;27161;-80
2022/02/02 11:14:46;;;;;;;2.60;1.50;;;;;;;3.03;88.45;99461.98;1702669;83;21373;-80
2022/02/02 11:17:59;;;;;;;2.37;1.80;;;;;;;3.00;88.37;99470.93;1704614;83;21933;-80
2022/02/02 11:20:45;;;;;;;3.08;1.85;;;;;;;2.97;88.39;99479.45;1689820;83;21100;-79
2022/02/02 11:23:42;;;;;;;2.83;2.10;;;;;;;2.92;88.35;99479.89;1718278;82;20992;-79
2022/02/02 11:26:43;;;;;;;2.40;1.90;;;;;;;2.89;88.42;99472.24;1722964;83;21630;-80
2022/02/02 11:29:45;;;;;;;3.52;1.92;;;;;;;2.91;88.47;99491.39;1748757;81;21519;-81
2022/02/02 11:32:45;;;;;;;2.58;1.80;;;;;;;2.94;88.48;99505.42;1727347;81;20979;-83
2022/02/02 11:35:46;;;;;;;2.72;1.65;;;;;;;2.97;88.55;99506.69;1739076;81;20909;-84
2022/02/02 11:38:37;;;;;;;2.00;1.52;;;;;;;3.03;88.62;99513.48;1743665;81;21007;-83
2022/02/02 11:41:48;;;;;;;3.92;1.40;;;;;;;3.06;88.57;99523.26;1741359;81;21017;-83
2022/02/02 11:45:06;;;;;;;2.60;1.67;;;;;;;3.09;88.54;99521.97;1744249;81;21021;-80
2022/02/02 11:47:44;;;;;;;1.95;1.42;;;;;;;3.11;88.57;99530.48;1743424;81;21016;-79
2022/02/02 11:50:51;;;;;;;3.12;1.57;;;;;;;3.18;88.64;99531.27;1737301;81;21300;-77
2022/02/02 11:53:56;;;;;;;2.22;1.52;;;;;;;3.26;88.66;99544.88;1727344;81;20941;-79
2022/02/02 11:57:10;;;;;;;4.55;1.75;;;;;;;3.29;88.66;99551.25;1740341;81;21400;-78
2022/02/02 12:00:09;;;;;;;1.80;1.55;;;;;;;3.30;88.54;99559.33;1737685;81;20942;-77
2022/02/02 12:06:02;;;;;;;1.72;1.20;;;;;;;3.33;88.60;99567.84;1725419;82;20919;-80
2022/02/02 12:08:55;;;;;;;1.37;1.27;;;;;;;3.35;88.58;99576.77;1736504;81;20934;-79
2022/02/02 12:46:15;;;;;;;1.12;1.00;;;;;;;3.19;88.59;99646.64;1748627;81;21005;-82
2022/02/02 12:49:01;;;;;;;1.57;1.40;;;;;;;3.17;88.52;99668.78;1746614;81;20956;-82
2022/02/02 12:57:20;;;;;;;1.30;1.10;;;;;;;3.18;88.55;99685.38;1726347;82;20961;-75
2022/02/02 13:00:11;;;;;;;1.52;1.12;;;;;;;3.18;88.53;99685.81;1740291;81;20914;-74
2022/02/02 13:02:54;;;;;;;2.00;1.40;;;;;;;3.13;88.48;99690.92;1723018;81;20972;-75
2022/02/02 13:05:42;;;;;;;1.85;1.35;;;;;;;3.11;88.50;99707.12;1716634;81;20921;-74
2022/02/02 13:08:26;;;;;;;1.87;1.60;;;;;;;3.12;88.52;99717.77;1734492;81;21412;-79
2022/02/02 13:11:11;;;;;;;1.65;1.50;;;;;;;3.13;88.53;99733.48;1698440;84;20937;-79
2022/02/02 13:14:10;;;;;;;3.12;1.40;;;;;;;3.13;88.54;99742.43;1749717;81;20932;-79
2022/02/02 13:16:55;;;;;;;1.50;1.40;;;;;;;3.13;88.56;99744.56;1739555;80;21382;-79
2022/02/02 13:19:43;;;;;;;2.15;1.95;;;;;;;3.09;88.49;99755.66;1719314;83;20922;-79
2022/02/02 13:22:29;;;;;;;2.47;1.92;;;;;;;3.06;88.48;99765.02;1711592;81;21434;-80
2022/02/02 13:25:20;;;;;;;;;;;;;;;3.00;88.45;99772.25;1685846;84;21481;-81
2022/02/02 13:28:07;;;;;;;4.12;2.10;;;;;;;2.99;88.49;99776.93;1669201;83;20130;-80
2022/02/02 13:30:54;;;;;;;;;;;;;;;2.94;88.47;99788.41;1681513;83;20931;-81
2022/02/02 13:33:42;;;;;;;2.42;1.95;;;;;;;2.94;88.47;99790.12;1689291;82;25321;-80
2022/02/02 13:36:47;;;;;;;2.27;1.67;;;;;;;2.92;88.44;99802.87;1678394;84;21062;-80
2022/02/02 13:49:32;;;;;;;2.02;1.40;;;;;;;3.00;88.52;99853.97;1688253;82;20979;-79
2022/02/02 13:55:06;;;;;;;2.00;1.67;;;;;;;2.97;88.46;99861.63;1693483;82;21023;-79
2022/02/02 14:00:54;;;;;;;1.80;1.60;;;;;;;2.96;88.45;99876.52;1690968;82;20997;-79
2022/02/02 14:06:40;;;;;;;2.15;1.80;;;;;;;2.97;88.47;99893.54;1690028;83;21016;-79
2022/02/02 14:09:26;;;;;;;2.80;1.95;;;;;;;3.01;88.51;99899.51;1689251;82;21026;-79
2022/02/02 14:33:15;;;;;;;3.50;2.17;;;;;;;2.93;88.38;99986.30;1735766;81;20997;-79
2022/02/02 14:36:03;;;;;;;5.15;1.75;;;;;;;2.91;88.38;99994.37;1714045;81;21130;-78
2022/02/02 14:41:54;;;;;;;4.12;3.67;;;;;;;2.82;88.38;100015.61;1680473;80;20133;-81
2022/02/02 14:44:38;;;;;;;1.55;1.45;;;;;;;2.78;88.38;100024.52;1696825;83;21044;-79
2022/02/02 14:47:33;;;;;;;1.32;0.90;;;;;;;2.68;88.28;100030.41;1692053;83;21460;-79
2022/02/02 14:50:27;;;;;;;1.62;1.00;;;;;;;2.47;88.07;100042.20;1697469;82;21101;-82
2022/02/02 14:53:17;;;;;;;2.65;1.25;;;;;;;2.31;88.15;100051.43;1700522;83;21712;-80
2022/02/02 14:56:21;;;;;;;3.35;1.30;;;;;;;2.11;88.19;100052.95;1701276;83;21049;-80
2022/02/02 15:27:11;;;;;;;4.75;3.08;;;;;;;2.17;88.69;100124.84;1679541;82;21069;-79
2022/02/02 15:29:05;;;;;;;2.72;1.87;;;;;;;2.21;88.71;100131.67;1694572;82;20978;-82
2022/02/02 15:31:43;;;;;;;2.95;2.00;;;;;;;2.23;88.59;100137.66;1693628;82;21058;-78
2022/02/02 15:34:39;;;;;;;2.87;1.82;;;;;;;2.24;88.58;100147.02;1741225;81;21085;-80
2022/02/02 15:40:11;;;;;;;2.10;1.80;;;;;;;2.27;88.57;100154.28;1747602;80;20964;-80
2022/02/02 15:43:16;;;;;;;3.12;2.00;;;;;;;2.27;88.57;100161.93;1743128;81;20953;-81
2022/02/02 15:55:08;;;;;;;7.03;4.80;;;;;;;2.29;88.54;100204.03;1736142;81;20929;-75
2022/02/02 16:03:46;;;;;;;3.67;2.33;;;;;;;2.38;88.62;100230.07;1724340;81;20901;-74
2022/02/02 16:06:31;;;;;;;3.33;2.40;;;;;;;2.38;88.52;100242.41;1746250;81;20894;-74
2022/02/02 16:09:26;;;;;;;3.15;2.60;;;;;;;2.34;88.44;100247.04;1737390;80;21316;-73
2022/02/02 16:12:20;;;;;;;4.90;2.15;;;;;;;2.32;88.46;100249.99;1743426;81;21667;-73
2022/02/02 16:36:13;;;;;;;4.62;2.67;;;;;;;2.25;88.53;100321.77;1729896;82;21045;-82
2022/02/02 16:39:06;;;;;;;4.05;3.10;;;;;;;2.27;88.55;100334.53;1739205;80;21034;-83
2022/02/02 16:44:49;;;;;;;4.95;2.83;;;;;;;2.26;88.52;100341.34;1723112;81;21266;-75
2022/02/02 16:47:33;;;;;;;7.35;3.35;;;;;;;2.28;88.54;100350.28;1729499;81;21080;-76
2022/02/02 16:50:22;;;;;;;6.33;3.10;;;;;;;2.28;88.51;100349.86;1730851;81;21496;-76
2022/02/02 16:53:15;;;;;;;5.67;3.60;;;;;;;2.29;88.55;100360.92;1727683;82;21029;-76
2022/02/02 17:34:39;;;;;;;3.45;2.00;;;;;;;2.32;88.41;100434.95;1718992;80;20994;-76
2022/02/02 17:37:38;;;;;;;2.95;1.75;;;;;;;2.31;88.44;100444.30;1732878;82;21414;-76
2022/02/02 17:40:09;;;;;;;2.98;1.45;;;;;;;2.31;88.41;100449.82;1726641;80;21541;-76
2022/02/02 17:45:51;;;;;;;2.40;1.65;;;;;;;2.25;88.40;100455.69;1731214;81;21545;-76
2022/02/02 18:03:56;;;;;;;2.72;1.65;;;;;;;2.14;88.41;100488.23;1704647;82;21048;-75
2022/02/02 18:12:39;;;;;;;3.45;1.85;;;;;;;2.08;88.38;100505.58;1728693;82;21097;-75
2022/02/02 18:21:20;;;;;;;3.08;2.00;;;;;;;2.10;88.45;100508.16;1733454;82;21038;-74
2022/02/02 18:24:19;;;;;;;4.10;1.98;;;;;;;2.10;88.46;100515.80;1724528;80;22158;-73
2022/02/02 18:27:05;;;;;;;2.55;1.70;;;;;;;2.11;88.48;100526.03;1743093;81;21021;-74
2022/02/02 18:30:00;;;;;;;4.05;1.70;;;;;;;2.08;88.37;100533.62;1733634;81;21068;-74
2022/02/02 18:32:44;;;;;;;2.22;1.30;;;;;;;2.05;88.39;100531.06;1736698;80;22489;-74
2022/02/02 18:35:20;;;;;;;1.82;1.30;;;;;;;2.04;88.39;100531.03;1737818;81;21437;-74
2022/02/02 18:47:17;;;;;;;2.30;1.75;;;;;;;1.83;88.27;100569.75;1717965;81;21040;-75
2022/02/02 18:50:09;;;;;;;2.67;1.82;;;;;;;1.75;88.21;100580.22;1735482;81;21036;-74
2022/02/02 18:55:55;;;;;;;3.27;2.05;;;;;;;1.49;88.11;100596.30;1731943;81;21096;-75
2022/02/02 18:58:45;;;;;;;3.35;2.27;;;;;;;1.39;88.20;100602.89;1731778;81;21505;-74
2022/02/02 19:01:32;;;;;;;2.08;1.77;;;;;;;1.33;88.27;100613.81;1726932;81;21558;-74
2022/02/02 19:52:54;;;;;;;3.62;2.60;;;;;;;0.96;88.50;100705.09;1733024;81;21540;-74
2022/02/02 19:55:28;;;;;;;3.17;2.62;;;;;;;0.96;88.51;100702.55;1729460;81;20898;-75
2022/02/02 20:07:46;;;;;;;5.67;2.98;;;;;;;1.02;88.57;100719.66;1741313;81;21291;-78
2022/02/02 20:10:30;;;;;;;2.95;2.47;;;;;;;1.04;88.55;100719.69;1741659;81;20949;-78
2022/02/02 20:13:08;;;;;;;3.08;2.08;;;;;;;1.03;88.54;100724.34;1741711;81;21115;-78
2022/02/02 20:15:53;;;;;;;2.75;2.02;;;;;;;1.04;88.54;100737.52;1737871;80;20977;-78
2022/02/02 20:18:42;;;;;;;2.70;1.98;;;;;;;1.05;88.56;100742.61;1743995;80;21485;-77
2022/02/02 20:21:29;;;;;;;2.52;1.95;;;;;;;1.06;88.51;100729.47;1736992;81;21356;-78
2022/02/02 20:24:12;;;;;;;2.30;1.65;;;;;;;1.03;88.45;100742.16;1745894;81;21069;-78
2022/02/02 20:26:56;;;;;;;3.37;2.12;;;;;;;1.00;88.47;100749.31;1747252;81;21072;-78
2022/02/02 20:29:41;;;;;;;2.90;1.77;;;;;;;0.98;88.50;100755.64;1726862;81;21011;-78
2022/02/02 20:32:26;;;;;;;2.50;1.90;;;;;;;0.95;88.48;100749.61;1726516;81;21443;-77
2022/02/02 20:35:11;;;;;;;2.90;1.62;;;;;;;0.94;88.51;100758.06;1718470;81;21587;-78
2022/02/02 20:37:57;;;;;;;2.63;1.87;;;;;;;0.90;88.43;100758.40;1681019;83;20966;-78
2022/02/02 20:40:41;;;;;;;3.72;2.55;;;;;;;0.89;88.46;100768.13;1750844;81;21484;-78
2022/02/02 20:43:37;;;;;;;3.08;2.45;;;;;;;0.87;88.45;100777.83;1716151;83;21436;-78
2022/02/02 21:04:47;;;;;;;2.42;1.52;;;;;;;0.84;88.53;100798.97;1743516;80;21052;-78
2022/02/02 21:07:26;;;;;;;3.80;2.52;;;;;;;0.83;88.51;100797.66;1747664;81;21127;-78
2022/02/02 21:10:16;;;;;;;12.35;8.53;;;;;;;0.82;88.51;100801.88;1747698;80;21110;-79
2022/02/02 21:16:04;;;;;;;8.43;5.33;;;;;;;0.73;88.41;100817.31;1730073;81;21053;-78
2022/02/02 21:18:54;;;;;;;12.88;6.60;;;;;;;0.69;88.39;100825.69;1732474;82;20904;-78
2022/02/02 21:21:39;;;;;;;;;;;;;;;0.66;88.43;100823.92;1756454;81;20933;-78
2022/02/02 21:29:55;;;;;;;5.53;2.20;;;;;;;0.60;88.37;100836.48;1682401;83;21037;-79
2022/02/02 21:32:40;;;;;;;4.65;1.90;;;;;;;0.57;88.39;100835.12;1670051;83;21048;-78
2022/02/02 21:35:26;;;;;;;5.37;1.82;;;;;;;0.55;88.37;100832.94;1680771;83;21077;-79
2022/02/02 21:38:19;;;;;;;3.50;2.02;;;;;;;0.51;88.36;100834.98;1676599;84;21536;-78
2022/02/02 21:40:59;;;;;;;5.75;2.05;;;;;;;0.49;88.39;100837.48;1676486;84;20905;-79
2022/02/02 21:43:43;;;;;;;;;;;;;;;0.48;88.40;100836.16;1679132;84;20957;-78
2022/02/02 21:46:27;;;;;;;12.37;3.17;;;;;;;0.46;88.43;100836.53;1696074;84;20185;-78
2022/02/02 21:49:18;;;;;;;24.12;6.37;;;;;;;0.43;88.36;100846.20;1702802;84;21787;-78
2022/02/02 21:52:06;;;;;;;25.65;6.72;;;;;;;0.38;88.38;100845.22;1676417;84;21042;-79
2022/02/02 21:54:48;;;;;;;35.52;8.13;;;;;;;0.37;88.41;100854.08;1699927;84;21117;-79
2022/02/02 21:57:33;;;;;;;45.85;10.25;;;;;;;0.34;88.39;100861.20;1676222;84;21090;-79
2022/02/02 22:00:18;;;;;;;21.60;5.05;;;;;;;0.32;88.40;100866.24;1673193;85;21102;-80
2022/02/02 22:03:03;;;;;;;21.52;6.28;;;;;;;0.28;88.39;100868.24;1692129;84;21093;-78
2022/02/02 22:05:49;;;;;;;20.85;5.40;;;;;;;0.26;88.38;100871.56;1698769;84;21049;-78
2022/02/02 22:08:33;;;;;;;;;;;;;;;0.23;88.39;100878.69;1696401;84;21107;-78
2022/02/02 22:11:18;;;;;;;27.80;6.10;;;;;;;0.21;88.42;100882.00;1691230;84;20226;-79
2022/02/02 22:14:07;;;;;;;25.48;6.08;;;;;;;0.19;88.39;100890.85;1688595;84;21026;-78
2022/02/02 22:16:50;;;;;;;26.10;5.55;;;;;;;0.19;88.42;100893.80;1704718;82;21081;-78
2022/02/02 22:19:36;;;;;;;10.85;3.12;;;;;;;0.16;88.36;100900.93;1686416;84;21053;-78
2022/02/02 22:22:21;;;;;;;10.85;2.50;;;;;;;0.14;88.40;100903.83;1702298;84;20942;-78
2022/02/02 22:25:07;;;;;;;14.60;4.08;;;;;;;0.10;88.35;100907.09;1705243;84;20949;-79
2022/02/02 22:27:52;;;;;;;24.67;6.33;;;;;;;0.08;88.34;100916.77;1696245;84;20966;-79
2022/02/02 22:30:36;;;;;;;49.58;9.38;;;;;;;0.08;88.39;100928.20;1688927;84;20955;-78
2022/02/02 22:33:20;;;;;;;28.20;6.67;;;;;;;0.07;88.37;100923.94;1694657;84;20907;-79
2022/02/02 22:36:05;;;;;;;22.65;4.62;;;;;;;0.03;88.31;100933.14;1681701;84;20943;-78
2022/02/02 22:38:49;;;;;;;20.10;4.90;;;;;;;-0.01;88.32;100930.95;1697867;84;21806;-78
2022/02/02 22:41:34;;;;;;;28.98;6.62;;;;;;;-0.02;88.34;100943.20;1699380;84;20903;-78
2022/02/02 22:44:18;;;;;;;41.50;8.90;;;;;;;-0.03;88.32;100938.06;1686930;84;20969;-78
2022/02/02 22:47:06;;;;;;;29.80;7.12;;;;;;;-0.06;88.32;100946.86;1705475;82;21624;-79
2022/02/02 22:49:52;;;;;;;25.02;6.08;;;;;;;-0.07;88.34;100949.81;1683741;84;21093;-78
2022/02/02 22:52:39;;;;;;;32.20;7.35;;;;;;;-0.09;88.30;100956.52;1701409;84;21084;-78
2022/02/02 22:55:23;;;;;;;28.30;5.95;;;;;;;-0.10;88.32;100964.09;1686543;84;21117;-78
2022/02/02 22:58:07;;;;;;;32.38;6.10;;;;;;;-0.12;88.35;100964.05;1690775;83;21815;-77
2022/02/02 23:00:52;;;;;;;23.73;6.30;;;;;;;-0.12;88.37;100968.27;1697571;84;21048;-78
2022/02/02 23:03:36;;;;;;;20.25;4.80;;;;;;;-0.14;88.38;100972.03;1706826;83;21527;-78
2022/02/02 23:06:21;;;;;;;22.17;5.78;;;;;;;-0.16;88.31;100974.06;1702286;84;21480;-77
2022/02/02 23:09:07;;;;;;;20.02;5.08;;;;;;;-0.18;88.30;100973.15;1686702;84;21082;-77
2022/02/02 23:11:52;;;;;;;;;;;;;;;-0.20;88.28;100983.27;1675482;84;21125;-76
2022/02/02 23:14:40;;;;;;;17.05;4.97;;;;;;;-0.24;88.28;100980.16;1680041;84;20215;-77
2022/02/02 23:17:27;;;;;;;18.52;4.62;;;;;;;-0.27;88.31;100980.06;1696370;84;21022;-77
2022/02/02 23:20:12;;;;;;;21.60;5.05;;;;;;;-0.28;88.36;100980.00;1701136;84;21093;-77
2022/02/02 23:22:56;;;;;;;14.83;3.95;;;;;;;-0.27;88.39;100977.52;1692709;84;21041;-77
2022/02/02 23:25:41;;;;;;;9.38;4.22;;;;;;;-0.28;88.37;100969.84;1657092;84;192678;-78
2022/02/02 23:28:30;;;;;;;13.05;4.47;;;;;;;-0.30;88.32;100983.77;1636411;85;21571;-80
2022/02/02 23:31:16;;;;;;;6.80;2.92;;;;;;;-0.32;88.30;100995.95;1611805;86;21075;-78
2022/02/02 23:34:01;;;;;;;9.55;3.50;;;;;;;-0.35;88.29;100998.85;1635885;87;21603;-78
2022/02/02 23:36:51;;;;;;;7.25;3.10;;;;;;;-0.36;88.30;101006.02;1635331;86;21049;-78
2022/02/02 23:39:33;;;;;;;9.68;3.40;;;;;;;-0.37;88.36;101010.64;1635575;86;21088;-78
2022/02/02 23:42:21;;;;;;;9.27;3.87;;;;;;;-0.39;88.35;101009.72;1635965;86;21060;-78
2022/02/02 23:45:09;;;;;;;7.25;3.40;;;;;;;-0.40;88.31;101013.07;1635750;86;21028;-78
2022/02/02 23:47:56;;;;;;;6.12;3.40;;;;;;;-0.40;88.33;101021.09;1639315;85;20910;-78
2022/02/02 23:50:41;;;;;;;7.62;3.33;;;;;;;-0.44;88.28;101023.08;1616872;86;20938;-79
2022/02/02 23:53:29;;;;;;;7.30;3.22;;;;;;;-0.46;88.30;101020.48;1616140;87;20998;-79